Time;durP1;ratioP1;P1;durP2;ratioP2;P2;SDS_P1;SDS_P2;PMS_P1;PMS_P2;Temp;Humidity;BMP_temperature;BMP_pressure;BME280_temperature;BME280_humidity;BME280_pressure;Samples;Min_cycle;Max_cycle;Signal;HPM_P1;HPM_P2
2023/03/11 00:00:38;;;;;;;5.20;1.10;;;;;;;1.61;100.00;99532.38;5073141;28;20036;-77
2023/03/11 00:03:06;;;;;;;8.77;1.30;;;;;;;1.63;100.00;99533.13;5076891;28;20138;-77
2023/03/11 00:05:34;;;;;;;3.25;0.95;;;;;;;1.69;100.00;99526.66;5071238;28;20039;-77
2023/03/11 00:08:01;;;;;;;4.07;1.10;;;;;;;1.71;100.00;99532.56;5063263;28;20043;-77
2023/03/11 00:10:33;;;;;;;7.78;1.10;;;;;;;1.77;100.00;99534.72;5087477;28;20190;-77
2023/03/11 00:12:59;;;;;;;7.53;1.23;;;;;;;1.75;100.00;99530.59;5088356;28;20052;-78
2023/03/11 00:15:26;;;;;;;5.82;1.50;;;;;;;1.74;100.00;99529.75;5067125;28;20036;-78
2023/03/11 00:17:52;;;;;;;6.32;1.60;;;;;;;1.68;100.00;99523.22;5072710;28;20436;-78
2023/03/11 00:20:30;;;;;;;7.75;1.77;;;;;;;1.70;100.00;99520.50;5084069;28;20034;-78
2023/03/11 00:22:57;;;;;;;6.25;1.50;;;;;;;1.74;100.00;99532.34;5086462;28;20043;-78
2023/03/11 00:25:25;;;;;;;10.98;1.77;;;;;;;1.79;100.00;99522.44;5091283;28;20084;-78
2023/03/11 00:27:51;;;;;;;10.60;3.15;;;;;;;1.80;100.00;99508.47;5086580;28;20573;-78
2023/03/11 00:30:18;;;;;;;9.02;1.77;;;;;;;1.80;100.00;99516.28;5086964;28;20032;-78
2023/03/11 00:32:45;;;;;;;4.63;1.75;;;;;;;1.78;100.00;99509.53;5089287;28;20097;-78
2023/03/11 00:35:15;;;;;;;5.13;2.30;;;;;;;1.80;100.00;99511.06;5093820;28;20028;-77
2023/03/11 00:37:41;;;;;;;6.63;2.50;;;;;;;1.78;100.00;99505.16;5090543;28;20092;-78
2023/03/11 00:40:12;;;;;;;8.50;2.70;;;;;;;1.75;100.00;99504.53;5073658;28;20100;-78
2023/03/11 00:42:38;;;;;;;6.38;2.22;;;;;;;1.68;100.00;99504.13;5095934;28;20035;-78
2023/03/11 00:45:04;;;;;;;6.80;2.40;;;;;;;1.65;100.00;99499.97;5099460;28;20040;-78
2023/03/11 00:47:29;;;;;;;6.13;2.65;;;;;;;1.63;100.00;99503.63;5087924;28;20035;-78
2023/03/11 00:49:55;;;;;;;7.65;3.60;;;;;;;1.59;100.00;99498.63;5068194;28;20403;-77
2023/03/11 00:52:21;;;;;;;10.10;2.53;;;;;;;1.58;100.00;99488.31;5080420;28;20035;-77
2023/03/11 00:54:47;;;;;;;7.03;2.47;;;;;;;1.61;100.00;99488.94;5070227;28;20036;-78
2023/03/11 00:57:13;;;;;;;4.97;2.08;;;;;;;1.63;100.00;99490.59;5089413;28;20028;-78
2023/03/11 00:59:41;;;;;;;6.63;2.05;;;;;;;1.60;100.00;99478.63;5087251;28;20089;-78
2023/03/11 01:02:07;;;;;;;6.18;2.00;;;;;;;1.57;100.00;99487.50;5080061;28;20489;-78
2023/03/11 01:04:33;;;;;;;6.88;2.40;;;;;;;1.59;100.00;99483.00;5079300;28;20048;-78
2023/03/11 01:06:59;;;;;;;11.23;2.38;;;;;;;1.61;100.00;99483.72;5090996;28;20032;-77
2023/03/11 01:09:25;;;;;;;4.55;1.88;;;;;;;1.63;100.00;99482.78;5087841;28;20361;-78
2023/03/11 01:11:51;;;;;;;9.13;1.98;;;;;;;1.64;100.00;99492.28;5057152;28;20048;-78
2023/03/11 01:14:17;;;;;;;9.25;2.15;;;;;;;1.65;100.00;99488.72;5069739;28;20077;-78
2023/03/11 01:16:43;;;;;;;9.38;2.25;;;;;;;1.63;100.00;99493.19;5072660;28;20025;-78
2023/03/11 01:19:09;;;;;;;6.57;1.63;;;;;;;1.64;100.00;99487.88;5060050;28;20508;-78
2023/03/11 01:21:35;;;;;;;4.65;1.52;;;;;;;1.66;100.00;99486.00;5040438;28;20480;-78
2023/03/11 01:24:00;;;;;;;5.30;1.23;;;;;;;1.65;100.00;99484.34;5080519;28;20036;-78
2023/03/11 01:26:27;;;;;;;3.42;1.88;;;;;;;1.68;100.00;99485.91;5091922;28;20036;-78
2023/03/11 01:28:54;;;;;;;12.23;2.08;;;;;;;1.67;100.00;99498.09;5085323;28;20365;-78
2023/03/11 01:31:20;;;;;;;9.30;1.92;;;;;;;1.70;100.00;99497.88;5067896;28;20059;-77
2023/03/11 01:33:46;;;;;;;2.30;1.55;;;;;;;1.73;100.00;99497.66;5090723;28;20032;-78
2023/03/11 01:36:12;;;;;;;3.47;1.77;;;;;;;1.74;100.00;99506.28;5088940;28;20035;-78
2023/03/11 01:38:37;;;;;;;7.28;1.90;;;;;;;1.70;100.00;99504.88;5026420;28;20092;-78
2023/03/11 01:41:04;;;;;;;3.10;1.63;;;;;;;1.71;100.00;99506.50;5079192;28;20028;-78
2023/03/11 01:43:45;;;;;;;4.25;1.80;;;;;;;1.71;100.00;99502.16;5089542;28;20032;-78
2023/03/11 01:46:19;;;;;;;9.70;1.50;;;;;;;1.61;100.00;99506.34;5053577;28;20028;-78
2023/03/11 01:48:52;;;;;;;6.95;2.55;;;;;;;1.60;100.00;99510.75;5071620;28;20068;-78
2023/03/11 01:51:39;;;;;;;10.65;2.00;;;;;;;1.65;100.00;99510.41;5084738;28;20028;-78
2023/03/11 01:54:18;;;;;;;6.22;1.65;;;;;;;1.68;100.00;99515.41;5068056;28;20059;-78
2023/03/11 01:56:47;;;;;;;5.82;1.65;;;;;;;1.68;100.00;99522.38;5082688;28;20027;-78
2023/03/11 01:59:16;;;;;;;5.63;2.03;;;;;;;1.70;100.00;99525.72;5078400;28;20040;-78
2023/03/11 02:01:53;;;;;;;5.35;1.55;;;;;;;1.71;100.00;99516.94;5085593;28;20392;-78
2023/03/11 02:04:20;;;;;;;4.07;1.70;;;;;;;1.68;100.00;99507.59;5067394;28;20456;-78
2023/03/11 02:06:46;;;;;;;6.55;1.63;;;;;;;1.62;100.00;99505.41;5089511;28;20032;-77
2023/03/11 02:09:12;;;;;;;5.40;1.75;;;;;;;1.62;100.00;99508.03;5081460;28;20043;-78
2023/03/11 02:11:38;;;;;;;12.65;2.28;;;;;;;1.57;100.00;99502.31;5090042;28;20047;-78
2023/03/11 02:14:07;;;;;;;3.15;1.30;;;;;;;1.51;100.00;99497.53;5090903;28;20024;-77
2023/03/11 02:16:33;;;;;;;3.05;1.20;;;;;;;1.42;100.00;99489.41;5090537;28;20027;-78
2023/03/11 02:19:34;;;;;;;4.70;2.03;;;;;;;1.42;100.00;99475.59;5050580;28;20040;-77
2023/03/11 02:22:01;;;;;;;3.97;1.63;;;;;;;1.42;100.00;99473.00;5001735;28;20584;-77
2023/03/11 02:24:52;;;;;;;5.80;1.40;;;;;;;1.45;100.00;99470.97;5082945;28;20028;-77
2023/03/11 02:27:21;;;;;;;4.15;2.28;;;;;;;1.47;100.00;99460.44;5083637;28;20060;-77
2023/03/11 02:29:50;;;;;;;1.75;0.85;;;;;;;1.61;100.00;99452.47;5078435;28;20500;-77
2023/03/11 02:32:17;;;;;;;0.68;0.50;;;;;;;1.71;100.00;99457.00;5067967;28;20028;-78
2023/03/11 02:34:44;;;;;;;3.00;0.90;;;;;;;1.77;100.00;99466.19;5051536;28;20027;-78
2023/03/11 02:37:14;;;;;;;2.53;0.57;;;;;;;1.88;100.00;99481.03;5062673;28;20047;-77
2023/03/11 02:39:47;;;;;;;4.70;0.90;;;;;;;1.93;100.00;99479.72;5081225;28;20055;-77
2023/03/11 02:42:17;;;;;;;1.15;0.50;;;;;;;1.97;100.00;99485.56;5049846;28;20043;-77
2023/03/11 02:44:49;;;;;;;1.85;0.70;;;;;;;2.04;100.00;99478.94;5087971;28;20487;-77
2023/03/11 02:47:15;;;;;;;3.40;0.93;;;;;;;2.06;100.00;99486.66;5088134;28;20056;-78
2023/03/11 02:49:41;;;;;;;3.30;0.52;;;;;;;2.08;100.00;99482.16;5060930;28;20507;-78
2023/03/11 02:52:08;;;;;;;1.98;0.70;;;;;;;2.07;100.00;99488.34;5084776;28;20044;-78
2023/03/11 02:54:33;;;;;;;1.20;0.50;;;;;;;2.01;100.00;99486.19;5069239;28;20113;-77
2023/03/11 02:56:59;;;;;;;9.10;3.15;;;;;;;1.91;100.00;99475.59;5087829;28;20028;-77
2023/03/11 02:59:27;;;;;;;3.33;0.60;;;;;;;1.91;100.00;99467.78;5070070;28;20029;-77
2023/03/11 03:01:54;;;;;;;3.42;0.50;;;;;;;1.89;100.00;99474.84;5072815;28;20036;-77
2023/03/11 03:04:20;;;;;;;2.97;0.50;;;;;;;1.85;100.00;99466.44;5073499;28;20040;-77
2023/03/11 03:06:46;;;;;;;2.00;0.43;;;;;;;1.76;100.00;99461.88;5071306;28;20033;-76
2023/03/11 03:09:14;;;;;;;2.80;0.68;;;;;;;1.68;100.00;99468.50;5050445;28;20063;-77
2023/03/11 03:11:40;;;;;;;2.75;0.93;;;;;;;1.59;100.00;99459.56;5068299;28;20067;-78
2023/03/11 03:14:06;;;;;;;5.20;0.80;;;;;;;1.61;100.00;99465.50;5073041;28;20474;-78
2023/03/11 03:16:32;;;;;;;1.95;0.40;;;;;;;1.56;100.00;99446.75;5088757;28;20048;-78
2023/03/11 03:18:58;;;;;;;1.60;0.68;;;;;;;1.53;100.00;99451.38;5070076;28;20032;-78
2023/03/11 03:21:24;;;;;;;4.18;0.82;;;;;;;1.49;100.00;99445.56;5069288;28;20077;-78
2023/03/11 03:23:50;;;;;;;3.90;0.80;;;;;;;1.50;100.00;99439.38;5085879;28;20067;-78
2023/03/11 03:26:16;;;;;;;6.38;0.70;;;;;;;1.45;100.00;99431.91;5081152;28;20028;-78
2023/03/11 03:28:46;;;;;;;3.15;1.00;;;;;;;1.47;100.00;99437.00;5060809;28;20499;-78
2023/03/11 03:31:12;;;;;;;6.32;0.90;;;;;;;1.50;100.00;99439.38;5073229;28;20032;-78
2023/03/11 03:33:40;;;;;;;3.08;1.02;;;;;;;1.52;100.00;99439.28;5066457;28;20489;-77
2023/03/11 03:36:12;;;;;;;3.10;0.80;;;;;;;1.57;100.00;99426.75;5089248;28;20480;-78
2023/03/11 03:38:42;;;;;;;1.07;0.50;;;;;;;1.54;100.00;99432.19;5064341;28;20461;-78
2023/03/11 03:41:08;;;;;;;5.03;0.90;;;;;;;1.56;100.00;99430.31;5088536;28;20485;-78
2023/03/11 03:43:36;;;;;;;1.35;0.55;;;;;;;1.51;100.00;99422.84;5087227;28;20036;-78
2023/03/11 03:46:04;;;;;;;3.15;0.80;;;;;;;1.55;100.00;99419.06;5086168;28;20040;-78
2023/03/11 03:48:35;;;;;;;4.18;1.17;;;;;;;1.56;100.00;99419.91;5059305;28;20036;-77
2023/03/11 03:51:05;;;;;;;1.50;0.60;;;;;;;1.50;100.00;99413.34;5068688;28;20036;-78
2023/03/11 03:53:36;;;;;;;3.40;0.82;;;;;;;1.44;100.00;99406.81;5045744;28;20029;-78
2023/03/11 03:56:04;;;;;;;2.30;0.70;;;;;;;1.42;100.00;99407.88;5087922;28;20036;-78
2023/03/11 03:58:31;;;;;;;5.63;1.10;;;;;;;1.46;100.00;99407.56;5066165;28;20032;-78
2023/03/11 04:00:59;;;;;;;3.90;0.75;;;;;;;1.52;100.00;99403.66;5059124;28;20174;-78
2023/03/11 04:03:26;;;;;;;4.95;0.90;;;;;;;1.49;100.00;99401.28;5069192;28;20048;-77
2023/03/11 04:06:17;;;;;;;5.25;0.75;;;;;;;1.50;100.00;99400.31;5091037;28;20032;-77
2023/03/11 04:08:43;;;;;;;;;;;;;;;1.45;100.00;99405.06;5084711;28;20492;-78
2023/03/11 04:11:11;;;;;;;2.72;0.93;;;;;;;1.42;100.00;99400.06;5084817;28;19923;-78
2023/03/11 04:13:37;;;;;;;1.73;0.80;;;;;;;1.36;100.00;99396.13;5088595;28;20097;-77
2023/03/11 04:16:06;;;;;;;3.45;0.70;;;;;;;1.36;100.00;99398.72;5080311;28;20036;-77
2023/03/11 04:18:33;;;;;;;2.38;0.90;;;;;;;1.32;100.00;99402.50;5073473;28;20040;-78
2023/03/11 04:21:04;;;;;;;4.28;1.33;;;;;;;1.33;100.00;99406.75;5091747;28;20040;-78
2023/03/11 04:23:30;;;;;;;2.63;0.90;;;;;;;1.36;100.00;99402.16;5054664;28;20040;-78
2023/03/11 04:25:56;;;;;;;4.82;1.05;;;;;;;1.40;100.00;99399.34;5071806;28;20540;-78
2023/03/11 04:28:23;;;;;;;2.85;1.13;;;;;;;1.44;100.00;99403.38;5094427;28;20055;-78
2023/03/11 04:30:49;;;;;;;6.68;0.95;;;;;;;1.45;100.00;99399.84;5075366;28;20106;-77
2023/03/11 04:33:15;;;;;;;3.38;1.00;;;;;;;1.45;100.00;99394.66;5087756;28;20043;-77
2023/03/11 04:35:41;;;;;;;7.75;1.55;;;;;;;1.43;100.00;99391.31;5091597;28;20044;-78
2023/03/11 04:38:07;;;;;;;10.95;1.70;;;;;;;1.37;100.00;99389.97;5088810;28;20036;-77
2023/03/11 04:40:33;;;;;;;2.53;1.42;;;;;;;1.35;100.00;99387.47;5090070;28;20048;-77
2023/03/11 04:42:59;;;;;;;3.47;1.23;;;;;;;1.30;100.00;99386.16;5086353;28;20039;-78
2023/03/11 04:45:25;;;;;;;4.05;1.30;;;;;;;1.24;100.00;99385.66;5071177;28;20040;-78
2023/03/11 04:47:54;;;;;;;4.32;1.20;;;;;;;1.15;100.00;99380.28;5084020;28;20584;-78
2023/03/11 04:50:20;;;;;;;3.92;1.58;;;;;;;1.14;100.00;99382.06;5081979;28;20081;-78
2023/03/11 04:52:46;;;;;;;7.78;1.45;;;;;;;1.12;100.00;99383.94;5089454;28;20070;-78
2023/03/11 04:55:13;;;;;;;3.78;1.70;;;;;;;1.10;100.00;99386.63;5091450;28;20035;-78
2023/03/11 04:57:41;;;;;;;3.92;1.70;;;;;;;1.14;100.00;99389.88;5054958;28;20044;-78
2023/03/11 05:00:11;;;;;;;4.85;1.10;;;;;;;1.19;100.00;99389.53;5091007;28;20078;-78
2023/03/11 05:02:39;;;;;;;6.57;1.58;;;;;;;1.21;100.00;99378.06;5071398;28;20048;-78
2023/03/11 05:05:07;;;;;;;4.82;1.42;;;;;;;1.26;100.00;99367.31;5090733;28;20495;-77
2023/03/11 05:07:35;;;;;;;9.35;1.60;;;;;;;1.32;100.00;99384.28;5055777;28;20123;-78
2023/03/11 05:10:03;;;;;;;7.38;1.60;;;;;;;1.35;100.00;99376.25;5077293;28;20056;-78
2023/03/11 05:12:31;;;;;;;3.45;1.70;;;;;;;1.35;100.00;99382.25;5088981;28;20115;-78
2023/03/11 05:14:57;;;;;;;5.88;2.25;;;;;;;1.33;100.00;99388.53;5068258;28;20028;-77
2023/03/11 05:17:23;;;;;;;3.67;1.58;;;;;;;1.36;100.00;99386.56;5072854;28;20043;-78
2023/03/11 05:19:52;;;;;;;5.93;1.90;;;;;;;1.41;100.00;99386.22;5090322;28;20040;-78
2023/03/11 05:22:24;;;;;;;5.68;1.60;;;;;;;1.43;100.00;99376.53;5089054;28;20063;-78
2023/03/11 05:24:50;;;;;;;6.68;1.88;;;;;;;1.45;100.00;99366.81;5089593;28;20032;-78
2023/03/11 05:27:16;;;;;;;5.78;1.80;;;;;;;1.45;100.00;99369.41;5089907;28;20089;-78
2023/03/11 05:29:46;;;;;;;2.75;1.38;;;;;;;1.45;100.00;99368.59;5088855;28;20077;-78
2023/03/11 05:32:14;;;;;;;2.63;1.50;;;;;;;1.44;100.00;99369.53;5053774;28;20029;-77
2023/03/11 05:34:41;;;;;;;3.47;1.52;;;;;;;1.45;100.00;99372.03;5067260;28;20040;-77
2023/03/11 05:37:07;;;;;;;2.75;1.80;;;;;;;1.48;100.00;99371.78;5073921;28;20058;-77
2023/03/11 05:39:33;;;;;;;4.63;1.67;;;;;;;1.48;100.00;99363.97;5074715;28;20028;-78
2023/03/11 05:41:59;;;;;;;2.13;1.40;;;;;;;1.51;100.00;99367.31;5068039;28;20396;-77
2023/03/11 05:44:27;;;;;;;7.20;1.63;;;;;;;1.48;100.00;99357.97;5070849;28;20111;-78
2023/03/11 05:46:54;;;;;;;4.13;1.65;;;;;;;1.50;100.00;99350.84;5073038;28;20040;-78
2023/03/11 05:49:21;;;;;;;4.30;1.80;;;;;;;1.50;100.00;99343.03;5088530;28;20543;-78
2023/03/11 05:51:49;;;;;;;1.90;1.45;;;;;;;1.50;100.00;99334.41;5067716;28;20036;-77
2023/03/11 05:54:16;;;;;;;3.83;1.60;;;;;;;1.47;100.00;99327.63;5075378;28;20028;-77
2023/03/11 05:56:46;;;;;;;5.00;1.13;;;;;;;1.37;100.00;99317.06;5070469;28;20055;-77
2023/03/11 05:59:14;;;;;;;2.45;1.17;;;;;;;1.32;100.00;99309.59;5071133;28;20089;-77
2023/03/11 06:01:41;;;;;;;5.15;1.60;;;;;;;1.30;100.00;99318.47;5089602;28;20044;-78
2023/03/11 06:04:08;;;;;;;4.18;1.60;;;;;;;1.36;100.00;99334.47;5051494;28;20055;-77
2023/03/11 06:06:34;;;;;;;6.95;1.55;;;;;;;1.39;100.00;99330.81;5054913;28;20055;-77
2023/03/11 06:09:00;;;;;;;5.55;1.65;;;;;;;1.41;100.00;99330.69;5074383;28;20078;-77
2023/03/11 06:11:28;;;;;;;3.28;1.58;;;;;;;1.43;100.00;99327.06;5088650;28;20042;-77
2023/03/11 06:13:55;;;;;;;4.80;1.80;;;;;;;1.47;100.00;99332.84;5074184;28;20098;-77
2023/03/11 06:16:24;;;;;;;3.60;2.05;;;;;;;1.51;100.00;99336.91;5062103;28;20032;-77
2023/03/11 06:18:51;;;;;;;5.15;1.45;;;;;;;1.52;100.00;99338.56;5075081;28;20458;-77
2023/03/11 06:21:20;;;;;;;3.78;1.75;;;;;;;1.57;100.00;99338.22;5089596;28;20035;-77
2023/03/11 06:23:46;;;;;;;2.85;1.63;;;;;;;1.57;100.00;99340.81;5089880;28;20031;-77
2023/03/11 06:26:14;;;;;;;4.05;1.23;;;;;;;1.55;100.00;99329.66;5073198;28;20031;-77
2023/03/11 06:28:44;;;;;;;1.10;0.90;;;;;;;1.48;100.00;99327.53;5089035;28;20539;-77
2023/03/11 06:31:16;;;;;;;1.35;1.00;;;;;;;1.51;100.00;99329.09;5066021;28;20954;-78
2023/03/11 06:33:42;;;;;;;2.88;1.23;;;;;;;1.51;100.00;99328.25;5089158;28;20028;-77
2023/03/11 06:36:11;;;;;;;3.22;1.08;;;;;;;1.51;100.00;99321.28;5073455;28;20484;-77
2023/03/11 06:38:36;;;;;;;2.15;1.20;;;;;;;1.52;100.00;99322.91;5083280;28;20037;-77
2023/03/11 06:41:05;;;;;;;1.27;0.70;;;;;;;1.54;100.00;99317.59;5080838;28;20039;-77
2023/03/11 06:43:33;;;;;;;1.92;1.08;;;;;;;1.54;100.00;99325.41;5073346;28;20036;-77
2023/03/11 06:45:59;;;;;;;4.07;1.10;;;;;;;1.58;100.00;99327.69;5085420;28;20035;-78
2023/03/11 06:48:26;;;;;;;5.20;1.58;;;;;;;1.64;100.00;99323.78;5090382;28;20032;-78
2023/03/11 06:50:57;;;;;;;1.85;1.15;;;;;;;1.69;100.00;99329.47;5072424;28;20028;-77
2023/03/11 06:53:27;;;;;;;2.88;1.35;;;;;;;1.71;100.00;99322.38;5073619;28;20038;-77
2023/03/11 06:56:10;;;;;;;5.22;1.52;;;;;;;1.77;100.00;99320.28;5088389;28;20476;-77
2023/03/11 06:58:43;;;;;;;1.90;1.17;;;;;;;1.76;100.00;99316.00;5095614;28;20041;-78
2023/03/11 07:01:23;;;;;;;1.30;1.02;;;;;;;1.76;100.00;99318.59;5087165;28;20028;-78
2023/03/11 07:03:50;;;;;;;1.65;1.00;;;;;;;1.75;100.00;99302.16;5087696;28;20056;-78
2023/03/11 07:06:22;;;;;;;1.20;1.00;;;;;;;1.79;100.00;99295.75;5077804;28;20114;-78
2023/03/11 07:08:51;;;;;;;1.25;0.90;;;;;;;1.75;100.00;99296.94;5087881;28;20040;-78
2023/03/11 07:11:26;;;;;;;1.02;0.90;;;;;;;1.80;100.00;99288.78;5071712;28;20040;-78
2023/03/11 07:13:55;;;;;;;3.05;0.85;;;;;;;1.79;100.00;99290.53;5072835;28;20068;-77
2023/03/11 07:16:24;;;;;;;2.45;0.90;;;;;;;1.82;100.00;99287.69;5065980;28;20044;-77
2023/03/11 07:18:55;;;;;;;1.42;1.05;;;;;;;1.87;100.00;99282.13;5099675;28;20028;-78
2023/03/11 07:21:22;;;;;;;2.65;1.58;;;;;;;1.88;100.00;99278.56;5085762;28;20287;-77
2023/03/11 07:23:52;;;;;;;2.60;1.40;;;;;;;1.86;100.00;99278.69;5088332;28;20032;-77
2023/03/11 07:26:18;;;;;;;2.20;1.15;;;;;;;1.86;100.00;99281.31;5089359;28;20492;-78
2023/03/11 07:28:44;;;;;;;3.30;1.20;;;;;;;1.89;100.00;99275.03;5084567;28;20036;-77
2023/03/11 07:31:16;;;;;;;1.85;1.13;;;;;;;1.94;100.00;99264.25;5053520;28;20098;-78
2023/03/11 07:33:42;;;;;;;2.33;1.23;;;;;;;1.88;100.00;99256.91;5044625;28;20024;-78
2023/03/11 07:36:11;;;;;;;1.20;1.10;;;;;;;1.88;100.00;99259.53;5057283;28;20074;-77
2023/03/11 07:38:38;;;;;;;0.70;0.70;;;;;;;1.84;100.00;99261.53;5080716;28;20040;-77
2023/03/11 07:41:05;;;;;;;0.75;0.75;;;;;;;1.84;100.00;99243.28;5092307;28;20032;-78
2023/03/11 07:43:31;;;;;;;1.05;0.90;;;;;;;1.89;100.00;99250.75;5092305;28;20028;-78
2023/03/11 07:46:17;;;;;;;0.77;0.60;;;;;;;1.86;100.00;99246.63;5091860;28;20040;-77
2023/03/11 07:48:44;;;;;;;1.35;1.02;;;;;;;1.89;100.00;99251.59;5091188;28;20035;-78
2023/03/11 07:51:15;;;;;;;1.48;0.85;;;;;;;1.94;100.00;99248.63;5094038;28;20036;-77
2023/03/11 07:53:42;;;;;;;0.77;0.70;;;;;;;1.97;100.00;99251.00;5091945;28;20036;-78
2023/03/11 07:56:10;;;;;;;1.48;0.90;;;;;;;2.06;100.00;99259.88;5092766;28;20093;-78
2023/03/11 07:58:37;;;;;;;2.65;0.93;;;;;;;2.09;100.00;99251.81;5073103;28;20097;-78
2023/03/11 08:01:05;;;;;;;3.53;1.10;;;;;;;2.14;100.00;99251.44;5057470;28;20043;-78
2023/03/11 08:03:32;;;;;;;1.00;0.80;;;;;;;2.18;100.00;99251.09;5091312;28;20048;-78
2023/03/11 08:05:58;;;;;;;1.48;1.00;;;;;;;2.16;100.00;99249.56;5074906;28;20024;-78
2023/03/11 08:08:24;;;;;;;2.65;1.27;;;;;;;2.22;100.00;99251.69;5085725;28;20028;-78
2023/03/11 08:10:49;;;;;;;2.28;1.13;;;;;;;2.23;100.00;99246.34;5085520;28;20503;-78
2023/03/11 08:13:15;;;;;;;0.90;0.75;;;;;;;2.23;100.00;99245.53;5086112;28;20495;-78
2023/03/11 08:15:41;;;;;;;1.33;1.13;;;;;;;2.30;100.00;99249.31;5079347;28;20040;-78
2023/03/11 08:18:07;;;;;;;3.88;1.10;;;;;;;2.34;100.00;99244.69;5090712;28;20098;-77
2023/03/11 08:20:33;;;;;;;1.50;1.05;;;;;;;2.39;100.00;99246.94;5054909;28;20091;-78
2023/03/11 08:22:58;;;;;;;2.35;1.02;;;;;;;2.39;100.00;99234.72;5065793;28;20085;-78
2023/03/11 08:25:25;;;;;;;3.15;0.82;;;;;;;2.41;100.00;99234.59;5091550;28;20392;-78
2023/03/11 08:27:50;;;;;;;3.22;0.70;;;;;;;2.42;100.00;99228.44;5058098;28;20565;-78
2023/03/11 08:30:16;;;;;;;1.73;0.82;;;;;;;2.46;100.00;99228.06;5092084;28;20028;-77
2023/03/11 08:32:42;;;;;;;0.55;0.32;;;;;;;2.50;100.00;99233.06;5085980;28;20035;-77
2023/03/11 08:35:09;;;;;;;3.13;0.35;;;;;;;2.57;100.00;99231.59;5089788;28;20028;-77
2023/03/11 08:37:35;;;;;;;0.55;0.20;;;;;;;2.59;100.00;99225.31;5055629;28;20054;-77
2023/03/11 08:40:01;;;;;;;1.60;0.50;;;;;;;2.66;100.00;99220.41;5084378;28;20589;-77
2023/03/11 08:42:27;;;;;;;0.95;0.30;;;;;;;2.71;100.00;99220.88;5065495;28;20035;-77
2023/03/11 08:44:53;;;;;;;0.10;0.10;;;;;;;2.68;100.00;99225.50;5085765;28;20036;-76
2023/03/11 08:47:19;;;;;;;2.47;0.30;;;;;;;2.75;100.00;99224.09;5091042;28;20134;-78
2023/03/11 08:49:45;;;;;;;1.92;0.30;;;;;;;2.74;100.00;99225.03;5071368;28;20036;-78
2023/03/11 08:52:10;;;;;;;0.28;0.20;;;;;;;2.81;100.00;99220.97;5093910;28;20040;-77
2023/03/11 08:54:36;;;;;;;1.00;0.20;;;;;;;2.81;100.00;99220.97;5089339;28;20024;-77
2023/03/11 08:57:03;;;;;;;1.10;0.20;;;;;;;2.82;100.00;99221.81;5065105;28;20037;-77
2023/03/11 08:59:29;;;;;;;0.65;0.30;;;;;;;2.82;100.00;99212.19;5090895;28;20032;-76
2023/03/11 09:01:55;;;;;;;0.65;0.20;;;;;;;2.84;100.00;99214.66;5089336;28;20116;-77
2023/03/11 09:04:21;;;;;;;0.17;0.17;;;;;;;2.84;100.00;99209.44;5080994;28;20048;-77
2023/03/11 09:06:49;;;;;;;0.70;0.10;;;;;;;2.93;100.00;99194.84;5048942;28;20046;-77
2023/03/11 09:09:16;;;;;;;1.58;0.30;;;;;;;2.91;100.00;99199.34;5081821;28;20078;-77
2023/03/11 09:11:42;;;;;;;0.10;0.10;;;;;;;2.92;100.00;99180.09;5089370;28;20039;-78
2023/03/11 09:14:08;;;;;;;0.43;0.30;;;;;;;2.96;100.00;99184.16;5092068;28;20057;-77
2023/03/11 09:16:33;;;;;;;0.20;0.20;;;;;;;2.97;100.00;99170.13;5082721;28;20040;-76
2023/03/11 09:19:02;;;;;;;0.73;0.20;;;;;;;3.02;100.00;99167.97;5086952;28;20496;-76
2023/03/11 09:21:28;;;;;;;0.28;0.20;;;;;;;3.05;100.00;99161.66;5077933;28;20301;-77
2023/03/11 09:23:54;;;;;;;0.25;0.20;;;;;;;3.10;100.00;99168.16;5088965;28;20119;-77
2023/03/11 09:26:20;;;;;;;0.15;0.10;;;;;;;3.12;100.00;99165.44;5090302;28;20035;-77
2023/03/11 09:28:47;;;;;;;0.93;0.15;;;;;;;3.11;100.00;99171.59;5086827;28;20512;-77
2023/03/11 09:31:14;;;;;;;2.05;0.20;;;;;;;3.17;100.00;99165.84;5088903;28;20069;-77
2023/03/11 09:33:41;;;;;;;0.77;0.30;;;;;;;3.22;100.00;99175.91;5070246;28;20688;-77
2023/03/11 09:36:14;;;;;;;1.15;0.30;;;;;;;3.28;100.00;99179.81;5074229;28;20071;-77
2023/03/11 09:38:42;;;;;;;0.45;0.43;;;;;;;3.27;100.00;99168.53;5091052;28;20054;-78
2023/03/11 09:41:36;;;;;;;1.60;0.40;;;;;;;3.32;100.00;99170.75;5076253;28;20040;-78
2023/03/11 09:44:23;;;;;;;0.52;0.20;;;;;;;3.38;100.00;99151.13;5090299;28;20043;-78
2023/03/11 09:47:04;;;;;;;2.83;0.10;;;;;;;3.39;100.00;99147.56;5068670;28;20036;-78
2023/03/11 09:49:38;;;;;;;0.15;0.10;;;;;;;3.50;100.00;99150.09;5090599;28;20040;-78
2023/03/11 09:52:18;;;;;;;0.20;0.20;;;;;;;3.50;100.00;99144.88;5080079;28;20036;-77
2023/03/11 09:55:04;;;;;;;0.77;0.20;;;;;;;3.51;100.00;99143.91;5065523;28;20459;-77
2023/03/11 09:57:35;;;;;;;;;;;;;;;3.47;100.00;99145.13;5074497;28;20078;-77
2023/03/11 10:00:05;;;;;;;2.17;0.30;;;;;;;3.49;100.00;99150.22;5089230;28;20371;-77
2023/03/11 10:02:39;;;;;;;0.20;0.10;;;;;;;3.53;100.00;99133.31;5087857;28;20048;-78
2023/03/11 10:05:11;;;;;;;1.00;0.20;;;;;;;3.50;100.00;99138.81;5098233;28;20032;-78
2023/03/11 10:07:40;;;;;;;0.85;0.10;;;;;;;3.53;100.00;99130.72;5086182;28;20089;-76
2023/03/11 10:10:11;;;;;;;2.53;0.10;;;;;;;3.52;100.00;99136.91;5089382;28;20031;-76
2023/03/11 10:12:58;;;;;;;0.08;0.05;;;;;;;3.50;100.00;99126.59;5054837;28;20040;-78
2023/03/11 10:15:47;;;;;;;2.03;0.10;;;;;;;3.60;100.00;99130.03;5088640;28;20040;-78
2023/03/11 10:18:24;;;;;;;0.93;0.52;;;;;;;3.59;100.00;99123.19;5070243;28;20044;-78
2023/03/11 10:21:28;;;;;;;0.28;0.10;;;;;;;3.60;100.00;99116.97;5066859;28;20054;-78
2023/03/11 10:24:05;;;;;;;0.17;0.08;;;;;;;3.65;100.00;99121.81;5062713;28;20064;-78
2023/03/11 10:26:40;;;;;;;0.00;0.00;;;;;;;3.70;100.00;99129.25;5081239;28;20044;-78
2023/03/11 10:29:33;;;;;;;1.25;0.25;;;;;;;3.72;100.00;99129.97;5070650;28;20070;-79
2023/03/11 10:32:04;;;;;;;0.17;0.10;;;;;;;3.73;100.00;99139.44;5083403;28;20036;-76
2023/03/11 10:34:48;;;;;;;0.90;0.20;;;;;;;3.80;100.00;99143.19;5093518;28;20494;-76
2023/03/11 10:37:29;;;;;;;0.47;0.10;;;;;;;3.77;100.00;99138.22;5059169;28;20032;-78
2023/03/11 10:40:04;;;;;;;0.10;0.10;;;;;;;3.79;100.00;99141.53;5087855;28;20055;-78
2023/03/11 10:42:32;;;;;;;1.67;0.03;;;;;;;3.75;100.00;99147.16;5064684;28;20071;-78
2023/03/11 10:44:59;;;;;;;0.45;0.10;;;;;;;3.79;100.00;99141.53;5085772;28;20035;-78
2023/03/11 10:47:25;;;;;;;0.10;0.00;;;;;;;3.85;100.00;99133.16;5073889;28;20038;-78
2023/03/11 10:49:51;;;;;;;0.20;0.10;;;;;;;3.79;100.00;99131.06;5089827;28;20032;-79
2023/03/11 10:52:18;;;;;;;1.17;0.05;;;;;;;3.85;100.00;99125.31;5081468;28;20043;-79
2023/03/11 10:54:46;;;;;;;0.10;0.10;;;;;;;3.85;100.00;99124.50;5080309;28;20043;-79
2023/03/11 10:57:21;;;;;;;0.00;0.00;;;;;;;3.95;100.00;99121.91;5105857;27;20032;-79
2023/03/11 10:59:52;;;;;;;0.30;0.20;;;;;;;3.99;100.00;99115.44;5047461;28;20701;-79
2023/03/11 11:02:26;;;;;;;0.52;0.10;;;;;;;3.96;100.00;99116.56;5090324;28;20060;-79
2023/03/11 11:05:06;;;;;;;0.13;0.00;;;;;;;4.00;100.00;99113.66;5085344;28;20028;-79
2023/03/11 11:07:35;;;;;;;0.30;0.20;;;;;;;4.03;100.00;99114.19;5071343;28;20040;-79
2023/03/11 11:10:19;;;;;;;0.85;0.30;;;;;;;4.09;100.00;99107.63;5079821;28;20031;-79
2023/03/11 11:13:01;;;;;;;1.55;0.10;;;;;;;4.12;100.00;99104.75;5061089;28;20040;-78
2023/03/11 11:15:36;;;;;;;0.40;0.10;;;;;;;4.11;100.00;99107.50;5080953;28;20044;-79
2023/03/11 11:18:15;;;;;;;1.08;0.10;;;;;;;4.21;100.00;99098.69;5087653;28;20038;-79
2023/03/11 11:21:12;;;;;;;0.80;0.20;;;;;;;4.23;100.00;99098.56;5088612;28;20051;-78
2023/03/11 11:23:45;;;;;;;0.00;0.00;;;;;;;4.26;100.00;99090.44;5070694;28;20043;-77
2023/03/11 11:26:31;;;;;;;0.00;0.00;;;;;;;4.28;100.00;99079.81;5067928;28;20119;-77
2023/03/11 11:29:13;;;;;;;0.40;0.10;;;;;;;4.32;100.00;99071.56;5085659;28;20032;-78
2023/03/11 11:31:44;;;;;;;0.10;0.10;;;;;;;4.39;100.00;99058.75;5089009;28;20475;-79
2023/03/11 11:34:32;;;;;;;0.40;0.10;;;;;;;4.39;100.00;99058.75;5049999;28;20502;-79
2023/03/11 11:37:01;;;;;;;0.60;0.10;;;;;;;4.49;100.00;99052.69;5092101;28;20107;-79
2023/03/11 11:39:31;;;;;;;1.00;0.20;;;;;;;4.52;100.00;99048.03;5090147;28;20423;-79
2023/03/11 11:41:59;;;;;;;0.57;0.20;;;;;;;4.58;100.00;99046.63;5081922;28;20066;-79
2023/03/11 11:44:34;;;;;;;0.73;0.10;;;;;;;4.58;100.00;99049.25;5083357;28;20230;-79